Time,TemperatureF,DewpointF,PressureIn,WindDirection,WindDirectionDegrees,WindSpeedMPH,WindSpeedGustMPH,Humidity,HourlyPrecipIn,Conditions,Clouds,dailyrainin,SoftwareType,DateUTC
2013-01-29 00:00:00,66.9,60.5,29.48,SSE,158,17.0,29.0,80,0.00,,---,0.00,VWS V14.01,2013-01-29 06:00:00,
2013-01-29 00:30:00,67.1,60.7,29.46,SSE,158,14.0,25.0,80,0.00,,---,0.00,VWS V14.01,2013-01-29 06:30:00,
2013-01-29 01:00:00,67.8,60.7,29.46,South,180,16.0,33.0,78,0.00,,---,0.00,VWS V14.01,2013-01-29 07:00:00,
2013-01-29 01:30:00,67.1,60.7,29.44,South,180,18.0,38.0,80,0.00,,---,0.00,VWS V14.01,2013-01-29 07:30:00,
2013-01-29 02:00:00,66.4,60.4,29.44,South,180,17.0,33.0,81,0.00,,---,0.00,VWS V14.01,2013-01-29 08:00:00,
2013-01-29 02:30:00,65.8,60.2,29.44,South,180,16.0,30.0,82,0.00,,---,0.00,VWS V14.01,2013-01-29 08:30:00,
2013-01-29 03:00:00,65.3,60.0,29.44,South,180,15.0,26.0,83,0.00,,---,0.00,VWS V14.01,2013-01-29 09:00:00,
2013-01-29 03:30:00,65.3,60.0,29.45,South,180,15.0,29.0,83,0.00,,---,0.00,VWS V14.01,2013-01-29 09:30:00,
2013-01-29 04:00:00,58.7,51.5,29.49,West,270,13.0,24.0,77,0.00,,---,0.00,VWS V14.01,2013-01-29 10:00:00,
2013-01-29 04:30:00,53.3,46.6,29.50,WNW,292,9.0,16.0,78,0.00,,---,0.00,VWS V14.01,2013-01-29 10:30:00,
2013-01-29 05:00:00,47.6,43.9,29.52,WNW,292,10.0,17.0,87,0.00,,---,0.00,VWS V14.01,2013-01-29 11:00:00,
2013-01-29 05:30:00,43.5,40.8,29.53,WNW,292,10.0,18.0,90,0.00,,---,0.00,VWS V14.01,2013-01-29 11:30:00,
2013-01-29 06:00:00,41.6,39.5,29.55,WNW,292,11.0,18.0,92,0.00,,---,0.00,VWS V14.01,2013-01-29 12:00:00,
2013-01-29 06:39:00,39.9,37.8,29.57,NW,319,9.0,11.0,92,0.00,,---,0.00,VWS V14.01,2013-01-29 12:39:00,
2013-01-29 06:40:00,39.9,37.8,29.57,NW,311,6.0,11.0,92,0.00,,---,0.00,VWS V14.01,2013-01-29 12:40:00,
2013-01-29 06:44:00,39.8,37.4,29.57,NW,304,6.0,11.0,91,0.00,,---,0.00,VWS V14.01,2013-01-29 12:44:00,
2013-01-29 06:45:00,39.8,37.4,29.56,NW,326,5.0,11.0,91,0.00,,---,0.00,VWS V14.01,2013-01-29 12:45:00,
2013-01-29 06:49:00,39.6,37.2,29.56,WNW,295,7.0,11.0,91,0.00,,---,0.00,VWS V14.01,2013-01-29 12:49:00,
2013-01-29 06:50:00,39.6,37.2,29.56,WNW,287,5.0,11.0,91,0.00,,---,0.00,VWS V14.01,2013-01-29 12:50:00,
2013-01-29 06:55:00,39.5,37.1,29.56,NNW,328,5.0,11.0,91,0.00,,---,0.00,VWS V14.01,2013-01-29 12:55:00,
2013-01-29 07:00:00,39.3,36.9,29.54,North,0,5.0,11.0,91,0.00,,---,0.00,VWS V14.01,2013-01-29 13:00:00,
2013-01-29 07:01:00,39.3,37.2,29.54,North,1,1.0,11.0,92,0.00,,---,0.00,VWS V14.01,2013-01-29 13:01:00,
2013-01-29 07:05:00,39.5,37.4,29.54,WNW,290,6.0,11.0,92,0.00,,---,0.00,VWS V14.01,2013-01-29 13:05:00,
2013-01-29 07:06:00,39.3,37.2,29.54,NW,316,5.0,11.0,92,0.00,,---,0.00,VWS V14.01,2013-01-29 13:06:00,
2013-01-29 07:10:00,39.3,37.2,29.54,WNW,300,4.0,11.0,92,0.00,,---,0.00,VWS V14.01,2013-01-29 13:10:00,
2013-01-29 07:11:00,39.5,37.4,29.54,WNW,298,4.0,11.0,92,0.00,,---,0.00,VWS V14.01,2013-01-29 13:11:00,
2013-01-29 07:15:00,39.3,36.9,29.58,WNW,302,5.0,13.0,91,0.00,,---,0.00,VWS V14.01,2013-01-29 13:15:00,
2013-01-29 07:16:00,39.3,36.9,29.58,WNW,295,4.0,7.0,91,0.00,,---,0.00,VWS V14.01,2013-01-29 13:16:00,
2013-01-29 07:17:00,39.2,36.8,29.58,NW,307,7.0,11.0,91,0.00,,---,0.00,VWS V14.01,2013-01-29 13:17:00,
2013-01-29 07:21:00,39.1,36.7,29.58,West,280,10.0,12.0,91,0.00,,---,0.00,VWS V14.01,2013-01-29 13:21:00,
2013-01-29 07:23:00,38.9,36.5,29.58,WNW,299,12.0,15.0,91,0.00,,---,0.00,VWS V14.01,2013-01-29 13:23:00,
2013-01-29 07:26:00,38.8,36.4,29.58,NW,315,7.0,15.0,91,0.00,,---,0.00,VWS V14.01,2013-01-29 13:26:00,
2013-01-29 07:27:00,38.8,36.4,29.58,NW,310,7.0,15.0,91,0.00,,---,0.00,VWS V14.01,2013-01-29 13:27:00,
2013-01-29 07:28:00,38.8,36.4,29.58,WNW,298,9.0,15.0,91,0.00,,---,0.00,VWS V14.01,2013-01-29 13:28:00,
2013-01-29 07:30:00,39.3,36.9,29.58,WNW,302,5.0,13.0,91,0.00,,---,0.00,VWS V14.01,2013-01-29 13:30:00,
2013-01-29 07:31:00,38.8,36.4,29.56,WNW,301,11.0,15.0,91,0.00,,---,0.00,VWS V14.01,2013-01-29 13:31:00,
2013-01-29 07:32:00,38.6,36.2,29.56,WNW,289,15.0,16.0,91,0.00,,---,0.00,VWS V14.01,2013-01-29 13:32:00,
2013-01-29 07:33:00,38.6,36.2,29.56,WNW,296,12.0,16.0,91,0.00,,---,0.00,VWS V14.01,2013-01-29 13:33:00,
2013-01-29 07:36:00,38.5,36.1,29.56,NW,321,8.0,16.0,91,0.00,,---,0.00,VWS V14.01,2013-01-29 13:36:00,
2013-01-29 07:37:00,38.3,35.9,29.56,WNW,300,8.0,16.0,91,0.00,,---,0.00,VWS V14.01,2013-01-29 13:37:00,
2013-01-29 07:38:00,38.3,35.9,29.56,NW,311,11.0,16.0,91,0.00,,---,0.00,VWS V14.01,2013-01-29 13:38:00,
2013-01-29 07:39:00,38.2,35.8,29.56,NW,319,12.0,16.0,91,0.00,,---,0.00,VWS V14.01,2013-01-29 13:39:00,
2013-01-29 07:42:00,38.2,35.8,29.56,NW,321,12.0,16.0,91,0.00,,---,0.00,VWS V14.01,2013-01-29 13:42:00,
2013-01-29 07:43:00,38.2,35.8,29.56,NW,321,11.0,16.0,91,0.00,,---,0.00,VWS V14.01,2013-01-29 13:43:00,
2013-01-29 07:44:00,38.2,35.8,29.56,NW,317,10.0,16.0,91,0.00,,---,0.00,VWS V14.01,2013-01-29 13:44:00,
2013-01-29 07:47:00,38.2,35.8,29.56,NW,311,7.0,12.0,91,0.00,,---,0.00,VWS V14.01,2013-01-29 13:47:00,
2013-01-29 07:48:00,38.2,35.8,29.56,NW,320,7.0,12.0,91,0.00,,---,0.00,VWS V14.01,2013-01-29 13:48:00,
2013-01-29 07:49:00,38.2,35.8,29.56,NW,321,12.0,12.0,91,0.00,,---,0.00,VWS V14.01,2013-01-29 13:49:00,
2013-01-29 07:52:00,38.0,35.6,29.56,NNW,333,9.0,14.0,91,0.00,,---,0.00,VWS V14.01,2013-01-29 13:52:00,
2013-01-29 07:53:00,38.0,35.6,29.56,NW,311,6.0,14.0,91,0.00,,---,0.00,VWS V14.01,2013-01-29 13:53:00,
2013-01-29 07:54:00,37.9,35.5,29.56,NW,321,11.0,14.0,91,0.00,,---,0.00,VWS V14.01,2013-01-29 13:54:00,
2013-01-29 07:57:00,37.9,35.5,29.56,NW,311,11.0,14.0,91,0.00,,---,0.00,VWS V14.01,2013-01-29 13:57:00,
2013-01-29 07:58:00,37.8,35.4,29.56,NW,323,7.0,14.0,91,0.00,,---,0.00,VWS V14.01,2013-01-29 13:58:00,
2013-01-29 07:59:00,37.8,35.4,29.56,NW,305,10.0,14.0,91,0.00,,---,0.00,VWS V14.01,2013-01-29 13:59:00,
2013-01-29 08:00:00,38.2,35.8,29.56,NW,322,7.0,16.0,91,0.00,,---,0.00,VWS V14.01,2013-01-29 14:00:00,
2013-01-29 08:02:00,37.6,34.9,29.56,WNW,302,13.0,15.0,90,0.00,,---,0.00,VWS V14.01,2013-01-29 14:02:00,
2013-01-29 08:03:00,37.6,34.9,29.56,WNW,283,5.0,15.0,90,0.00,,---,0.00,VWS V14.01,2013-01-29 14:03:00,
2013-01-29 08:04:00,37.6,34.9,29.56,NW,305,9.0,15.0,90,0.00,,---,0.00,VWS V14.01,2013-01-29 14:04:00,
2013-01-29 08:08:00,37.6,34.9,29.56,NW,319,10.0,15.0,90,0.00,,---,0.00,VWS V14.01,2013-01-29 14:08:00,
2013-01-29 08:09:00,37.5,34.8,29.56,WNW,283,9.0,15.0,90,0.00,,---,0.00,VWS V14.01,2013-01-29 14:09:00,
2013-01-29 08:10:00,37.5,34.8,29.56,NW,304,7.0,15.0,90,0.00,,---,0.00,VWS V14.01,2013-01-29 14:10:00,
2013-01-29 08:13:00,37.5,34.8,29.56,NW,307,5.0,15.0,90,0.00,,---,0.00,VWS V14.01,2013-01-29 14:13:00,
2013-01-29 08:14:00,37.5,34.8,29.56,NW,304,7.0,15.0,90,0.00,,---,0.00,VWS V14.01,2013-01-29 14:14:00,
2013-01-29 08:15:00,37.5,34.8,29.59,NW,307,5.0,15.0,90,0.00,,---,0.00,VWS V14.01,2013-01-29 14:15:00,
2013-01-29 08:18:00,37.5,34.8,29.59,WNW,297,5.0,10.0,90,0.00,,---,0.00,VWS V14.01,2013-01-29 14:18:00,
2013-01-29 08:19:00,37.5,34.8,29.59,WNW,290,6.0,11.0,90,0.00,,---,0.00,VWS V14.01,2013-01-29 14:19:00,
2013-01-29 08:20:00,37.5,34.8,29.59,WNW,286,10.0,12.0,90,0.00,,---,0.00,VWS V14.01,2013-01-29 14:20:00,
2013-01-29 08:23:00,37.5,34.8,29.59,WNW,297,5.0,12.0,90,0.00,,---,0.00,VWS V14.01,2013-01-29 14:23:00,
2013-01-29 08:24:00,37.5,34.8,29.59,NW,321,4.0,12.0,90,0.00,,---,0.00,VWS V14.01,2013-01-29 14:24:00,
2013-01-29 08:25:00,37.5,34.8,29.59,NW,326,5.0,12.0,90,0.00,,---,0.00,VWS V14.01,2013-01-29 14:25:00,
2013-01-29 08:28:00,37.5,34.8,29.59,WNW,296,5.0,12.0,90,0.00,,---,0.00,VWS V14.01,2013-01-29 14:28:00,
2013-01-29 08:29:00,37.5,34.8,29.59,NW,306,5.0,12.0,90,0.00,,---,0.00,VWS V14.01,2013-01-29 14:29:00,
2013-01-29 08:30:00,37.5,34.8,29.60,NW,309,6.0,12.0,90,0.00,,---,0.00,VWS V14.01,2013-01-29 14:30:00,
2013-01-29 08:33:00,37.5,34.8,29.60,NW,315,3.0,12.0,90,0.00,,---,0.00,VWS V14.01,2013-01-29 14:33:00,
2013-01-29 08:35:00,37.5,34.8,29.60,WNW,302,6.0,12.0,90,0.00,,---,0.00,VWS V14.01,2013-01-29 14:35:00,
2013-01-29 08:36:00,37.5,34.8,29.60,NW,311,6.0,12.0,90,0.00,,---,0.00,VWS V14.01,2013-01-29 14:36:00,
2013-01-29 08:38:00,37.5,34.8,29.60,WNW,294,3.0,12.0,90,0.00,,---,0.00,VWS V14.01,2013-01-29 14:38:00,
2013-01-29 08:40:00,37.5,34.8,29.60,NW,318,5.0,12.0,90,0.00,,---,0.00,VWS V14.01,2013-01-29 14:40:00,
2013-01-29 08:41:00,37.3,34.4,29.60,NW,306,5.0,12.0,89,0.00,,---,0.00,VWS V14.01,2013-01-29 14:41:00,
2013-01-29 08:43:00,37.3,34.4,29.60,NW,307,5.0,12.0,89,0.00,,---,0.00,VWS V14.01,2013-01-29 14:43:00,
2013-01-29 08:45:00,37.3,34.4,29.61,NW,304,2.0,12.0,89,0.00,,---,0.00,VWS V14.01,2013-01-29 14:45:00,
2013-01-29 08:46:00,37.3,34.4,29.61,NW,304,4.0,4.0,89,0.00,,---,0.00,VWS V14.01,2013-01-29 14:46:00,
2013-01-29 08:48:00,37.3,34.4,29.61,NW,310,3.0,9.0,89,0.00,,---,0.00,VWS V14.01,2013-01-29 14:48:00,
2013-01-29 08:50:00,37.3,34.4,29.61,WNW,302,5.0,10.0,89,0.00,,---,0.00,VWS V14.01,2013-01-29 14:50:00,
2013-01-29 08:51:00,37.3,34.4,29.61,West,277,5.0,10.0,89,0.00,,---,0.00,VWS V14.01,2013-01-29 14:51:00,
2013-01-29 08:54:00,37.3,34.4,29.61,NW,309,4.0,10.0,89,0.00,,---,0.00,VWS V14.01,2013-01-29 14:54:00,
2013-01-29 08:55:00,37.3,34.4,29.61,WNW,302,6.0,10.0,89,0.00,,---,0.00,VWS V14.01,2013-01-29 14:55:00,
2013-01-29 08:56:00,37.3,34.4,29.61,NW,322,7.0,10.0,89,0.00,,---,0.00,VWS V14.01,2013-01-29 14:56:00,
2013-01-29 08:59:00,37.3,34.4,29.61,NNW,330,7.0,10.0,89,0.00,,---,0.00,VWS V14.01,2013-01-29 14:59:00,
2013-01-29 09:00:00,37.3,34.4,29.61,NNW,339,6.0,7.0,89,0.00,,---,0.00,VWS V14.01,2013-01-29 15:00:00,
2013-01-29 09:01:00,37.3,34.4,29.61,NW,320,9.0,9.0,89,0.00,,---,0.00,VWS V14.01,2013-01-29 15:01:00,
2013-01-29 09:02:00,37.3,34.4,29.61,NW,311,4.0,11.0,89,0.00,,---,0.00,VWS V14.01,2013-01-29 15:02:00,
2013-01-29 09:04:00,37.3,34.4,29.61,NW,321,4.0,11.0,89,0.00,,---,0.00,VWS V14.01,2013-01-29 15:04:00,
2013-01-29 09:06:00,37.3,34.4,29.61,NNW,342,5.0,11.0,89,0.00,,---,0.00,VWS V14.01,2013-01-29 15:06:00,
2013-01-29 09:07:00,37.3,34.4,29.61,NNW,331,5.0,11.0,89,0.00,,---,0.00,VWS V14.01,2013-01-29 15:07:00,
2013-01-29 09:08:00,37.3,34.4,29.61,NW,314,5.0,11.0,89,0.00,,---,0.00,VWS V14.01,2013-01-29 15:08:00,
2013-01-29 09:09:00,37.3,34.4,29.61,NW,313,3.0,11.0,89,0.00,,---,0.00,VWS V14.01,2013-01-29 15:09:00,
2013-01-29 09:11:00,37.3,34.6,29.61,NW,317,4.0,11.0,90,0.00,,---,0.00,VWS V14.01,2013-01-29 15:11:00,
2013-01-29 09:12:00,37.3,34.6,29.61,NW,316,5.0,11.0,90,0.00,,---,0.00,VWS V14.01,2013-01-29 15:12:00,
2013-01-29 09:13:00,37.3,34.6,29.61,NW,317,6.0,11.0,90,0.00,,---,0.00,VWS V14.01,2013-01-29 15:13:00,
2013-01-29 09:14:00,37.3,34.6,29.61,NW,321,6.0,11.0,90,0.00,,---,0.00,VWS V14.01,2013-01-29 15:14:00,
2013-01-29 09:17:00,37.2,34.5,29.59,NW,318,9.0,10.0,90,0.00,,---,0.00,VWS V14.01,2013-01-29 15:17:00,
2013-01-29 09:18:00,37.2,34.5,29.59,NW,313,5.0,10.0,90,0.00,,---,0.00,VWS V14.01,2013-01-29 15:18:00,
2013-01-29 09:19:00,37.3,34.6,29.59,NNW,340,2.0,10.0,90,0.00,,---,0.00,VWS V14.01,2013-01-29 15:19:00,
2013-01-29 09:22:00,37.3,34.6,29.59,NW,318,6.0,10.0,90,0.00,,---,0.00,VWS V14.01,2013-01-29 15:22:00,
2013-01-29 09:24:00,37.3,34.6,29.59,NW,314,5.0,10.0,90,0.00,,---,0.00,VWS V14.01,2013-01-29 15:24:00,
2013-01-29 09:25:00,37.3,34.6,29.59,WNW,302,6.0,10.0,90,0.00,,---,0.00,VWS V14.01,2013-01-29 15:25:00,
2013-01-29 09:27:00,37.3,34.9,29.59,NW,310,7.0,10.0,91,0.00,,---,0.00,VWS V14.01,2013-01-29 15:27:00,
2013-01-29 09:28:00,37.3,34.9,29.59,NW,323,6.0,10.0,91,0.00,,---,0.00,VWS V14.01,2013-01-29 15:28:00,
2013-01-29 09:29:00,37.3,34.9,29.59,NW,315,9.0,10.0,91,0.00,,---,0.00,VWS V14.01,2013-01-29 15:29:00,
2013-01-29 09:31:00,37.3,34.9,29.58,NW,316,10.0,13.0,91,0.00,,---,0.00,VWS V14.01,2013-01-29 15:31:00,
2013-01-29 09:33:00,37.3,34.9,29.58,WNW,298,6.0,13.0,91,0.00,,---,0.00,VWS V14.01,2013-01-29 15:33:00,
2013-01-29 09:34:00,37.3,34.9,29.58,NW,316,6.0,13.0,91,0.00,,---,0.00,VWS V14.01,2013-01-29 15:34:00,
2013-01-29 09:36:00,37.3,34.9,29.58,WNW,303,9.0,13.0,91,0.00,,---,0.00,VWS V14.01,2013-01-29 15:36:00,
2013-01-29 09:38:00,37.3,34.9,29.58,NW,310,7.0,13.0,91,0.00,,---,0.00,VWS V14.01,2013-01-29 15:38:00,
2013-01-29 09:40:00,37.5,35.1,29.58,NW,312,4.0,13.0,91,0.00,,---,0.00,VWS V14.01,2013-01-29 15:40:00,
2013-01-29 09:41:00,37.5,35.1,29.58,NNW,331,6.0,13.0,91,0.00,,---,0.00,VWS V14.01,2013-01-29 15:41:00,
2013-01-29 09:43:00,37.5,35.1,29.58,NW,322,11.0,14.0,91,0.00,,---,0.00,VWS V14.01,2013-01-29 15:43:00,
2013-01-29 09:45:00,37.5,35.1,29.56,NW,321,7.0,14.0,91,0.00,,---,0.00,VWS V14.01,2013-01-29 15:45:00,
2013-01-29 09:46:00,37.5,35.1,29.56,NW,309,7.0,12.0,91,0.00,,---,0.00,VWS V14.01,2013-01-29 15:46:00,
2013-01-29 09:48:00,37.5,35.1,29.56,NNW,336,9.0,12.0,91,0.00,,---,0.00,VWS V14.01,2013-01-29 15:48:00,
2013-01-29 09:49:00,37.5,35.1,29.56,NW,310,9.0,12.0,91,0.00,,---,0.00,VWS V14.01,2013-01-29 15:49:00,
2013-01-29 09:50:00,37.5,35.1,29.56,NNW,335,9.0,14.0,91,0.00,,---,0.00,VWS V14.01,2013-01-29 15:50:00,
2013-01-29 09:51:00,37.5,35.1,29.56,NW,319,5.0,14.0,91,0.00,,---,0.00,VWS V14.01,2013-01-29 15:51:00,
2013-01-29 09:53:00,37.6,35.2,29.56,WNW,301,12.0,14.0,91,0.00,,---,0.00,VWS V14.01,2013-01-29 15:53:00,
2013-01-29 09:54:00,37.6,35.2,29.56,NNW,340,10.0,14.0,91,0.00,,---,0.00,VWS V14.01,2013-01-29 15:54:00,
2013-01-29 09:55:00,37.6,35.2,29.56,NNW,330,7.0,14.0,91,0.00,,---,0.00,VWS V14.01,2013-01-29 15:55:00,
2013-01-29 09:56:00,37.6,35.2,29.56,North,359,5.0,14.0,91,0.00,,---,0.00,VWS V14.01,2013-01-29 15:56:00,
2013-01-29 09:58:00,37.8,35.4,29.56,North,0,4.0,14.0,91,0.00,,---,0.00,VWS V14.01,2013-01-29 15:58:00,
2013-01-29 09:59:00,37.8,35.4,29.56,NW,311,7.0,14.0,91,0.00,,---,0.00,VWS V14.01,2013-01-29 15:59:00,
2013-01-29 10:00:00,37.8,35.4,29.56,NNW,337,6.0,14.0,91,0.00,,---,0.00,VWS V14.01,2013-01-29 16:00:00,
2013-01-29 10:01:00,37.8,35.4,29.56,North,351,3.0,14.0,91,0.00,,---,0.00,VWS V14.01,2013-01-29 16:01:00,
2013-01-29 10:03:00,37.8,35.4,29.56,North,359,15.0,15.0,91,0.00,,---,0.00,VWS V14.01,2013-01-29 16:03:00,
2013-01-29 10:05:00,37.8,35.4,29.56,North,0,9.0,15.0,91,0.00,,---,0.00,VWS V14.01,2013-01-29 16:05:00,
2013-01-29 10:07:00,37.8,35.4,29.56,NNW,328,7.0,15.0,91,0.00,,---,0.00,VWS V14.01,2013-01-29 16:07:00,
2013-01-29 10:09:00,37.6,34.9,29.56,North,353,11.0,15.0,90,0.00,,---,0.00,VWS V14.01,2013-01-29 16:09:00,
2013-01-29 10:10:00,37.6,34.9,29.56,NNW,343,9.0,15.0,90,0.00,,---,0.00,VWS V14.01,2013-01-29 16:10:00,
2013-01-29 10:12:00,37.6,34.9,29.56,NW,326,6.0,15.0,90,0.00,,---,0.00,VWS V14.01,2013-01-29 16:12:00,
2013-01-29 10:14:00,37.6,34.9,29.56,North,358,14.0,15.0,90,0.00,,---,0.00,VWS V14.01,2013-01-29 16:14:00,
2013-01-29 10:15:00,37.5,34.8,29.54,North,0,9.0,15.0,90,0.00,,---,0.00,VWS V14.01,2013-01-29 16:15:00,
2013-01-29 10:16:00,37.5,34.8,29.54,North,350,5.0,5.0,90,0.00,,---,0.00,VWS V14.01,2013-01-29 16:16:00,
2013-01-29 10:18:00,37.5,34.8,29.54,North,2,7.0,11.0,90,0.00,,---,0.00,VWS V14.01,2013-01-29 16:18:00,
2013-01-29 10:19:00,37.6,34.9,29.54,North,359,10.0,11.0,90,0.00,,---,0.00,VWS V14.01,2013-01-29 16:19:00,
2013-01-29 10:20:00,37.6,34.9,29.54,North,0,8.0,13.0,90,0.00,,---,0.00,VWS V14.01,2013-01-29 16:20:00,
2013-01-29 10:21:00,37.6,34.9,29.54,North,0,8.0,13.0,90,0.00,,---,0.00,VWS V14.01,2013-01-29 16:21:00,
2013-01-29 10:23:00,37.5,34.8,29.54,North,10,10.0,13.0,90,0.00,,---,0.00,VWS V14.01,2013-01-29 16:23:00,
2013-01-29 10:25:00,37.5,34.8,29.54,North,9,9.0,13.0,90,0.00,,---,0.00,VWS V14.01,2013-01-29 16:25:00,
2013-01-29 10:26:00,37.6,34.9,29.54,North,0,9.0,13.0,90,0.00,,---,0.00,VWS V14.01,2013-01-29 16:26:00,
2013-01-29 10:28:00,37.6,34.9,29.54,North,359,4.0,13.0,90,0.00,,---,0.00,VWS V14.01,2013-01-29 16:28:00,
2013-01-29 11:00:00,37.8,34.8,29.55,North,0,8.0,14.0,89,0.00,,---,0.00,VWS V14.01,2013-01-29 17:00:00,
2013-01-29 11:30:00,38.0,35.3,29.54,North,0,8.0,8.0,90,0.00,,---,0.00,VWS V14.01,2013-01-29 17:30:00,
2013-01-29 11:35:00,38.0,35.0,29.53,North,0,9.0,12.0,89,0.00,,---,0.00,VWS V14.01,2013-01-29 17:35:00,
2013-01-29 11:36:00,38.0,35.0,29.53,North,10,10.0,12.0,89,0.00,,---,0.00,VWS V14.01,2013-01-29 17:36:00,
2013-01-29 11:40:00,38.0,35.0,29.53,North,0,10.0,13.0,89,0.00,,---,0.00,VWS V14.01,2013-01-29 17:40:00,
2013-01-29 11:41:00,38.0,35.0,29.53,North,3,12.0,13.0,89,0.00,,---,0.00,VWS V14.01,2013-01-29 17:41:00,
2013-01-29 11:45:00,38.0,34.8,29.52,North,1,9.0,13.0,88,0.00,,---,0.00,VWS V14.01,2013-01-29 17:45:00,
2013-01-29 11:46:00,38.0,34.8,29.52,North,0,9.0,12.0,88,0.00,,---,0.00,VWS V14.01,2013-01-29 17:46:00,
2013-01-29 11:50:00,38.0,34.8,29.52,North,3,10.0,14.0,88,0.00,,---,0.00,VWS V14.01,2013-01-29 17:50:00,
2013-01-29 11:51:00,38.0,34.8,29.52,North,2,11.0,14.0,88,0.00,,---,0.00,VWS V14.01,2013-01-29 17:51:00,
2013-01-29 11:55:00,37.9,34.7,29.52,NW,320,5.0,15.0,88,0.00,,---,0.00,VWS V14.01,2013-01-29 17:55:00,
2013-01-29 11:56:00,37.9,34.7,29.52,North,353,3.0,15.0,88,0.00,,---,0.00,VWS V14.01,2013-01-29 17:56:00,
2013-01-29 11:57:00,37.9,34.7,29.52,North,357,14.0,15.0,88,0.00,,---,0.00,VWS V14.01,2013-01-29 17:57:00,
2013-01-29 12:00:00,37.8,34.3,29.50,North,6,14.0,15.0,87,0.00,,---,0.00,VWS V14.01,2013-01-29 18:00:00,
2013-01-29 12:02:00,37.8,34.3,29.50,North,1,12.0,15.0,87,0.00,,---,0.00,VWS V14.01,2013-01-29 18:02:00,
2013-01-29 12:03:00,37.8,34.3,29.50,North,359,15.0,16.0,87,0.00,,---,0.00,VWS V14.01,2013-01-29 18:03:00,
2013-01-29 12:05:00,37.9,34.4,29.50,North,1,12.0,16.0,87,0.00,,---,0.00,VWS V14.01,2013-01-29 18:05:00,
2013-01-29 12:07:00,38.0,34.2,29.50,North,0,13.0,16.0,86,0.00,,---,0.00,VWS V14.01,2013-01-29 18:07:00,
2013-01-29 12:08:00,38.0,34.2,29.50,NNW,342,6.0,16.0,86,0.00,,---,0.00,VWS V14.01,2013-01-29 18:08:00,
2013-01-29 12:11:00,38.2,34.4,29.50,North,353,9.0,16.0,86,0.00,,---,0.00,VWS V14.01,2013-01-29 18:11:00,
2013-01-29 12:12:00,38.2,34.4,29.50,North,0,11.0,16.0,86,0.00,,---,0.00,VWS V14.01,2013-01-29 18:12:00,
2013-01-29 12:13:00,38.0,34.2,29.50,North,1,9.0,16.0,86,0.00,,---,0.00,VWS V14.01,2013-01-29 18:13:00,
2013-01-29 12:14:00,38.0,33.9,29.50,North,8,11.0,16.0,85,0.00,,---,0.00,VWS V14.01,2013-01-29 18:14:00,
2013-01-29 12:17:00,37.9,33.8,29.49,North,0,7.0,17.0,85,0.00,,---,0.00,VWS V14.01,2013-01-29 18:17:00,
2013-01-29 12:18:00,38.0,33.9,29.49,North,353,4.0,17.0,85,0.00,,---,0.00,VWS V14.01,2013-01-29 18:18:00,
2013-01-29 12:19:00,38.0,33.9,29.49,North,352,11.0,17.0,85,0.00,,---,0.00,VWS V14.01,2013-01-29 18:19:00,
2013-01-29 12:22:00,38.2,34.1,29.49,NNW,333,4.0,17.0,85,0.00,,---,0.00,VWS V14.01,2013-01-29 18:22:00,
2013-01-29 12:23:00,38.2,34.1,29.49,North,351,8.0,17.0,85,0.00,,---,0.00,VWS V14.01,2013-01-29 18:23:00,
2013-01-29 12:24:00,38.2,33.8,29.49,NW,323,6.0,17.0,84,0.00,,---,0.00,VWS V14.01,2013-01-29 18:24:00,
2013-01-29 12:27:00,38.2,33.8,29.49,North,359,9.0,17.0,84,0.00,,---,0.00,VWS V14.01,2013-01-29 18:27:00,
2013-01-29 12:28:00,38.2,33.8,29.49,North,355,6.0,17.0,84,0.00,,---,0.00,VWS V14.01,2013-01-29 18:28:00,
2013-01-29 12:30:00,38.2,33.5,29.52,NW,309,9.0,17.0,83,0.00,,---,0.00,VWS V14.01,2013-01-29 18:30:00,
2013-01-29 12:32:00,38.0,33.3,29.52,NW,316,4.0,17.0,83,0.00,,---,0.00,VWS V14.01,2013-01-29 18:32:00,
2013-01-29 12:33:00,38.0,33.3,29.52,WNW,302,11.0,17.0,83,0.00,,---,0.00,VWS V14.01,2013-01-29 18:33:00,
2013-01-29 12:34:00,38.0,33.3,29.52,NW,322,11.0,17.0,83,0.00,,---,0.00,VWS V14.01,2013-01-29 18:34:00,
2013-01-29 12:35:00,38.0,33.3,29.52,NNW,340,9.0,17.0,83,0.00,,---,0.00,VWS V14.01,2013-01-29 18:35:00,
2013-01-29 12:38:00,38.0,33.3,29.52,North,359,6.0,17.0,83,0.00,,---,0.00,VWS V14.01,2013-01-29 18:38:00,
2013-01-29 12:39:00,38.2,33.5,29.52,North,359,5.0,17.0,83,0.00,,---,0.00,VWS V14.01,2013-01-29 18:39:00,
2013-01-29 12:40:00,38.2,33.5,29.52,NW,317,7.0,17.0,83,0.00,,---,0.00,VWS V14.01,2013-01-29 18:40:00,
2013-01-29 12:43:00,38.0,33.0,29.52,NW,320,7.0,17.0,82,0.00,,---,0.00,VWS V14.01,2013-01-29 18:43:00,
2013-01-29 12:44:00,38.0,33.3,29.52,NNW,340,10.0,17.0,83,0.00,,---,0.00,VWS V14.01,2013-01-29 18:44:00,
2013-01-29 12:45:00,38.0,33.3,29.50,NNW,342,7.0,17.0,83,0.00,,---,0.00,VWS V14.01,2013-01-29 18:45:00,
2013-01-29 12:49:00,38.0,33.3,29.50,North,358,5.0,14.0,83,0.00,,---,0.00,VWS V14.01,2013-01-29 18:49:00,
2013-01-29 12:51:00,38.0,33.3,29.50,NNW,333,4.0,14.0,83,0.00,,---,0.00,VWS V14.01,2013-01-29 18:51:00,
2013-01-29 12:54:00,38.2,33.5,29.50,North,0,10.0,14.0,83,0.00,,---,0.00,VWS V14.01,2013-01-29 18:54:00,
2013-01-29 12:55:00,38.2,33.5,29.50,North,349,5.0,14.0,83,0.00,,---,0.00,VWS V14.01,2013-01-29 18:55:00,
2013-01-29 12:56:00,38.2,33.5,29.50,North,354,7.0,14.0,83,0.00,,---,0.00,VWS V14.01,2013-01-29 18:56:00,
2013-01-29 12:59:00,38.3,33.6,29.50,NNW,327,5.0,14.0,83,0.00,,---,0.00,VWS V14.01,2013-01-29 18:59:00,
2013-01-29 13:00:00,38.0,33.3,29.50,North,359,10.0,17.0,83,0.00,,---,0.00,VWS V14.01,2013-01-29 19:00:00,
2013-01-29 13:01:00,38.3,33.6,29.51,North,349,3.0,14.0,83,0.00,,---,0.00,VWS V14.01,2013-01-29 19:01:00,
2013-01-29 13:04:00,38.2,33.5,29.51,NW,321,9.0,14.0,83,0.00,,---,0.00,VWS V14.01,2013-01-29 19:04:00,
2013-01-29 13:06:00,38.2,33.5,29.51,North,356,7.0,14.0,83,0.00,,---,0.00,VWS V14.01,2013-01-29 19:06:00,
2013-01-29 13:09:00,38.2,33.5,29.51,NNW,344,5.0,14.0,83,0.00,,---,0.00,VWS V14.01,2013-01-29 19:09:00,
2013-01-29 13:10:00,38.2,33.5,29.51,North,359,2.0,14.0,83,0.00,,---,0.00,VWS V14.01,2013-01-29 19:10:00,
2013-01-29 13:11:00,38.2,33.5,29.51,NW,326,6.0,14.0,83,0.00,,---,0.00,VWS V14.01,2013-01-29 19:11:00,
2013-01-29 13:14:00,38.2,33.5,29.51,NW,313,6.0,14.0,83,0.00,,---,0.00,VWS V14.01,2013-01-29 19:14:00,
2013-01-29 13:15:00,38.0,33.3,29.49,NW,326,4.0,14.0,83,0.00,,---,0.00,VWS V14.01,2013-01-29 19:15:00,
2013-01-29 13:16:00,38.0,33.3,29.49,NNW,347,4.0,8.0,83,0.00,,---,0.00,VWS V14.01,2013-01-29 19:16:00,
2013-01-29 13:19:00,38.2,33.5,29.49,North,0,7.0,10.0,83,0.00,,---,0.00,VWS V14.01,2013-01-29 19:19:00,
2013-01-29 13:21:00,38.2,33.5,29.49,NW,326,7.0,12.0,83,0.00,,---,0.00,VWS V14.01,2013-01-29 19:21:00,
2013-01-29 13:24:00,38.0,33.3,29.49,NW,316,10.0,12.0,83,0.00,,---,0.00,VWS V14.01,2013-01-29 19:24:00,
2013-01-29 13:26:00,38.0,33.3,29.49,NNW,328,6.0,13.0,83,0.00,,---,0.00,VWS V14.01,2013-01-29 19:26:00,
2013-01-29 13:27:00,38.0,33.3,29.49,North,358,5.0,13.0,83,0.00,,---,0.00,VWS V14.01,2013-01-29 19:27:00,
2013-01-29 13:29:00,38.0,33.3,29.49,North,358,5.0,14.0,83,0.00,,---,0.00,VWS V14.01,2013-01-29 19:29:00,
2013-01-29 13:30:00,38.0,33.3,29.49,NW,326,3.0,14.0,83,0.00,,---,0.00,VWS V14.01,2013-01-29 19:30:00,
2013-01-29 13:31:00,38.0,33.3,29.46,North,359,4.0,17.0,83,0.00,,---,0.00,VWS V14.01,2013-01-29 19:31:00,
2013-01-29 13:32:00,38.0,33.3,29.46,North,357,5.0,17.0,83,0.00,,---,0.00,VWS V14.01,2013-01-29 19:32:00,
2013-01-29 13:35:00,38.0,33.3,29.46,NW,316,11.0,17.0,83,0.00,,---,0.00,VWS V14.01,2013-01-29 19:35:00,
2013-01-29 13:36:00,38.0,33.3,29.46,North,0,9.0,17.0,83,0.00,,---,0.00,VWS V14.01,2013-01-29 19:36:00,
2013-01-29 13:37:00,38.0,33.3,29.46,NW,323,6.0,17.0,83,0.00,,---,0.00,VWS V14.01,2013-01-29 19:37:00,
2013-01-29 13:40:00,37.9,33.2,29.46,NW,319,10.0,17.0,83,0.00,,---,0.00,VWS V14.01,2013-01-29 19:40:00,
2013-01-29 13:42:00,37.9,33.2,29.46,NW,309,7.0,17.0,83,0.00,,---,0.00,VWS V14.01,2013-01-29 19:42:00,
2013-01-29 13:45:00,37.8,33.1,29.47,NW,317,8.0,17.0,83,0.00,,---,0.00,VWS V14.01,2013-01-29 19:45:00,
2013-01-29 13:47:00,37.8,33.1,29.47,NW,304,6.0,14.0,83,0.00,,---,0.00,VWS V14.01,2013-01-29 19:47:00,
2013-01-29 13:50:00,37.8,33.1,29.47,NW,324,9.0,14.0,83,0.00,,---,0.00,VWS V14.01,2013-01-29 19:50:00,
2013-01-29 13:52:00,37.8,33.1,29.47,NW,312,6.0,14.0,83,0.00,,---,0.00,VWS V14.01,2013-01-29 19:52:00,
2013-01-29 13:53:00,37.8,33.1,29.47,NW,312,11.0,14.0,83,0.00,,---,0.00,VWS V14.01,2013-01-29 19:53:00,
2013-01-29 13:55:00,37.8,33.1,29.47,WNW,299,6.0,14.0,83,0.00,,---,0.00,VWS V14.01,2013-01-29 19:55:00,
2013-01-29 13:57:00,37.9,33.2,29.47,NNW,345,3.0,14.0,83,0.00,,---,0.00,VWS V14.01,2013-01-29 19:57:00,
2013-01-29 13:58:00,37.9,33.2,29.47,NNW,336,7.0,14.0,83,0.00,,---,0.00,VWS V14.01,2013-01-29 19:58:00,
2013-01-29 14:00:00,37.8,33.1,29.48,NW,319,11.0,14.0,83,0.00,,---,0.00,VWS V14.01,2013-01-29 20:00:00,
2013-01-29 14:03:00,37.8,33.1,29.48,NW,325,9.0,20.0,83,0.00,,---,0.00,VWS V14.01,2013-01-29 20:03:00,
2013-01-29 14:05:00,37.6,32.9,29.48,North,353,4.0,20.0,83,0.00,,---,0.00,VWS V14.01,2013-01-29 20:05:00,
2013-01-29 14:08:00,37.6,32.9,29.48,NNW,340,7.0,20.0,83,0.00,,---,0.00,VWS V14.01,2013-01-29 20:08:00,
2013-01-29 14:10:00,37.6,32.6,29.48,NNW,330,5.0,20.0,82,0.00,,---,0.00,VWS V14.01,2013-01-29 20:10:00,
2013-01-29 14:13:00,37.5,32.5,29.48,North,359,6.0,20.0,82,0.00,,---,0.00,VWS V14.01,2013-01-29 20:13:00,
2013-01-29 14:15:00,37.6,32.9,29.45,North,355,16.0,20.0,83,0.00,,---,0.00,VWS V14.01,2013-01-29 20:15:00,
2013-01-29 14:18:00,37.8,32.8,29.45,North,0,14.0,16.0,82,0.00,,---,0.00,VWS V14.01,2013-01-29 20:18:00,
2013-01-29 14:19:00,37.8,32.5,29.45,NNW,332,11.0,16.0,81,0.00,,---,0.00,VWS V14.01,2013-01-29 20:19:00,
2013-01-29 14:21:00,37.8,32.5,29.45,North,358,7.0,16.0,81,0.00,,---,0.00,VWS V14.01,2013-01-29 20:21:00,
2013-01-29 14:23:00,37.8,32.5,29.45,North,359,8.0,16.0,81,0.00,,---,0.00,VWS V14.01,2013-01-29 20:23:00,
2013-01-29 14:24:00,37.8,32.5,29.45,North,352,11.0,16.0,81,0.00,,---,0.00,VWS V14.01,2013-01-29 20:24:00,
2013-01-29 14:26:00,37.8,32.5,29.45,North,352,6.0,17.0,81,0.00,,---,0.00,VWS V14.01,2013-01-29 20:26:00,
2013-01-29 14:29:00,37.9,32.6,29.45,North,1,11.0,17.0,81,0.00,,---,0.00,VWS V14.01,2013-01-29 20:29:00,
2013-01-29 14:30:00,37.6,32.9,29.45,North,355,16.0,20.0,83,0.00,,---,0.00,VWS V14.01,2013-01-29 20:30:00,
2013-01-29 14:31:00,37.9,32.6,29.46,North,1,14.0,17.0,81,0.00,,---,0.00,VWS V14.01,2013-01-29 20:31:00,
2013-01-29 14:34:00,37.8,32.5,29.46,NW,323,5.0,17.0,81,0.00,,---,0.00,VWS V14.01,2013-01-29 20:34:00,
2013-01-29 14:35:00,37.8,32.2,29.46,NW,324,7.0,17.0,80,0.00,,---,0.00,VWS V14.01,2013-01-29 20:35:00,
2013-01-29 14:36:00,37.8,32.2,29.46,NNW,328,5.0,17.0,80,0.00,,---,0.00,VWS V14.01,2013-01-29 20:36:00,
2013-01-29 14:39:00,37.5,31.9,29.46,NNW,341,4.0,17.0,80,0.00,,---,0.00,VWS V14.01,2013-01-29 20:39:00,
2013-01-29 14:40:00,37.5,31.9,29.46,NNW,330,8.0,17.0,80,0.00,,---,0.00,VWS V14.01,2013-01-29 20:40:00,
2013-01-29 14:42:00,37.3,31.7,29.46,North,350,6.0,17.0,80,0.00,,---,0.00,VWS V14.01,2013-01-29 20:42:00,
2013-01-29 14:44:00,37.3,32.0,29.46,North,357,3.0,17.0,81,0.00,,---,0.00,VWS V14.01,2013-01-29 20:44:00,
2013-01-29 14:45:00,37.3,32.0,29.48,North,357,9.0,17.0,81,0.00,,---,0.00,VWS V14.01,2013-01-29 20:45:00,
2013-01-29 14:46:00,37.3,32.0,29.48,NNW,335,13.0,13.0,81,0.00,,---,0.00,VWS V14.01,2013-01-29 20:46:00,
2013-01-29 14:47:00,37.2,31.9,29.48,North,0,6.0,13.0,81,0.00,,---,0.00,VWS V14.01,2013-01-29 20:47:00,
2013-01-29 14:49:00,37.0,31.7,29.48,NW,311,16.0,16.0,81,0.00,,---,0.00,VWS V14.01,2013-01-29 20:49:00,
2013-01-29 14:50:00,36.9,31.6,29.48,NW,314,13.0,16.0,81,0.00,,---,0.00,VWS V14.01,2013-01-29 20:50:00,
2013-01-29 14:51:00,36.8,31.5,29.48,NW,321,15.0,17.0,81,0.00,,---,0.00,VWS V14.01,2013-01-29 20:51:00,
2013-01-29 14:52:00,36.8,31.5,29.48,NW,309,12.0,17.0,81,0.00,,---,0.00,VWS V14.01,2013-01-29 20:52:00,
2013-01-29 14:55:00,36.8,31.8,29.48,NW,309,10.0,17.0,82,0.00,,---,0.00,VWS V14.01,2013-01-29 20:55:00,
2013-01-29 14:57:00,36.8,31.8,29.48,NW,322,10.0,17.0,82,0.00,,---,0.00,VWS V14.01,2013-01-29 20:57:00,
2013-01-29 15:00:00,36.5,31.5,29.48,NW,324,13.0,13.0,82,0.00,,---,0.00,VWS V14.01,2013-01-29 21:00:00,
2013-01-29 15:02:00,36.3,31.3,29.48,NW,311,14.0,14.0,82,0.00,,---,0.00,VWS V14.01,2013-01-29 21:02:00,
2013-01-29 15:05:00,36.2,31.5,29.48,NW,324,7.0,15.0,83,0.00,,---,0.00,VWS V14.01,2013-01-29 21:05:00,
2013-01-29 15:06:00,36.2,31.5,29.48,NW,307,9.0,15.0,83,0.00,,---,0.00,VWS V14.01,2013-01-29 21:06:00,
2013-01-29 15:07:00,36.2,31.5,29.48,NNW,327,6.0,15.0,83,0.00,,---,0.00,VWS V14.01,2013-01-29 21:07:00,
2013-01-29 15:10:00,36.2,31.5,29.48,NW,320,4.0,15.0,83,0.00,,---,0.00,VWS V14.01,2013-01-29 21:10:00,
2013-01-29 15:11:00,36.2,31.5,29.48,NW,323,5.0,15.0,83,0.00,,---,0.00,VWS V14.01,2013-01-29 21:11:00,
2013-01-29 15:12:00,36.2,31.5,29.48,NW,319,10.0,15.0,83,0.00,,---,0.00,VWS V14.01,2013-01-29 21:12:00,
2013-01-29 15:13:00,36.2,31.5,29.48,NW,319,13.0,15.0,83,0.00,,---,0.00,VWS V14.01,2013-01-29 21:13:00,
2013-01-29 15:15:00,36.0,31.4,29.50,NW,313,6.0,16.0,83,0.00,,---,0.00,VWS V14.01,2013-01-29 21:15:00,
2013-01-29 15:16:00,36.0,31.4,29.50,NNW,335,4.0,13.0,83,0.00,,---,0.00,VWS V14.01,2013-01-29 21:16:00,
2013-01-29 15:17:00,36.0,31.6,29.50,NNW,333,6.0,14.0,84,0.00,,---,0.00,VWS V14.01,2013-01-29 21:17:00,
2013-01-29 15:18:00,36.0,31.6,29.50,North,359,3.0,14.0,84,0.00,,---,0.00,VWS V14.01,2013-01-29 21:18:00,
2013-01-29 15:21:00,36.0,31.6,29.50,North,352,12.0,14.0,84,0.00,,---,0.00,VWS V14.01,2013-01-29 21:21:00,
2013-01-29 15:23:00,36.2,32.1,29.50,NNW,340,8.0,14.0,85,0.00,,---,0.00,VWS V14.01,2013-01-29 21:23:00,
2013-01-29 15:26:00,36.2,32.1,29.50,North,11,11.0,14.0,85,0.00,,---,0.00,VWS V14.01,2013-01-29 21:26:00,
2013-01-29 15:28:00,36.2,31.8,29.50,North,7,10.0,15.0,84,0.00,,---,0.00,VWS V14.01,2013-01-29 21:28:00,
2013-01-29 15:29:00,36.2,31.8,29.50,North,359,12.0,15.0,84,0.00,,---,0.00,VWS V14.01,2013-01-29 21:29:00,
2013-01-29 15:30:00,36.0,31.4,29.50,NW,313,6.0,16.0,83,0.00,,---,0.00,VWS V14.01,2013-01-29 21:30:00,
2013-01-29 15:31:00,36.2,31.8,29.49,North,0,15.0,15.0,84,0.00,,---,0.00,VWS V14.01,2013-01-29 21:31:00,
2013-01-29 15:33:00,36.2,31.8,29.49,North,1,11.0,18.0,84,0.00,,---,0.00,VWS V14.01,2013-01-29 21:33:00,
2013-01-29 15:34:00,36.2,31.8,29.49,North,2,12.0,18.0,84,0.00,,---,0.00,VWS V14.01,2013-01-29 21:34:00,
2013-01-29 15:36:00,36.2,31.8,29.49,North,1,10.0,18.0,84,0.00,,---,0.00,VWS V14.01,2013-01-29 21:36:00,
2013-01-29 15:38:00,36.2,31.8,29.49,North,359,13.0,18.0,84,0.00,,---,0.00,VWS V14.01,2013-01-29 21:38:00,
2013-01-29 15:39:00,36.2,31.8,29.49,North,1,12.0,18.0,84,0.00,,---,0.00,VWS V14.01,2013-01-29 21:39:00,
2013-01-29 15:42:00,36.2,31.8,29.49,North,0,12.0,18.0,84,0.00,,---,0.00,VWS V14.01,2013-01-29 21:42:00,
2013-01-29 15:43:00,36.2,31.8,29.49,North,3,10.0,18.0,84,0.00,,---,0.00,VWS V14.01,2013-01-29 21:43:00,
2013-01-29 15:44:00,36.2,31.8,29.49,North,1,7.0,18.0,84,0.00,,---,0.00,VWS V14.01,2013-01-29 21:44:00,
2013-01-29 15:48:00,36.3,31.9,29.50,North,1,10.0,13.0,84,0.00,,---,0.00,VWS V14.01,2013-01-29 21:48:00,
2013-01-29 15:49:00,36.3,31.9,29.50,North,0,9.0,13.0,84,0.00,,---,0.00,VWS V14.01,2013-01-29 21:49:00,
2013-01-29 15:53:00,36.5,31.8,29.50,North,1,7.0,13.0,83,0.00,,---,0.00,VWS V14.01,2013-01-29 21:53:00,
2013-01-29 15:54:00,36.5,31.8,29.50,North,359,10.0,13.0,83,0.00,,---,0.00,VWS V14.01,2013-01-29 21:54:00,
2013-01-29 15:58:00,36.5,32.1,29.50,North,6,5.0,13.0,84,0.00,,---,0.00,VWS V14.01,2013-01-29 21:58:00,
2013-01-29 15:59:00,36.6,32.2,29.50,North,6,4.0,13.0,84,0.00,,---,0.00,VWS V14.01,2013-01-29 21:59:00,
2013-01-29 16:00:00,36.3,31.9,29.50,North,1,11.0,18.0,84,0.00,,---,0.00,VWS V14.01,2013-01-29 22:00:00,
2013-01-29 16:03:00,36.6,31.9,29.52,North,0,7.0,14.0,83,0.00,,---,0.00,VWS V14.01,2013-01-29 22:03:00,
2013-01-29 16:04:00,36.6,31.9,29.52,North,359,14.0,14.0,83,0.00,,---,0.00,VWS V14.01,2013-01-29 22:04:00,
2013-01-29 16:05:00,36.6,31.9,29.52,North,359,7.0,14.0,83,0.00,,---,0.00,VWS V14.01,2013-01-29 22:05:00,
2013-01-29 16:09:00,36.6,31.9,29.52,North,351,6.0,14.0,83,0.00,,---,0.00,VWS V14.01,2013-01-29 22:09:00,
2013-01-29 16:10:00,36.6,31.6,29.52,North,359,12.0,14.0,82,0.00,,---,0.00,VWS V14.01,2013-01-29 22:10:00,
2013-01-29 16:14:00,36.8,31.8,29.52,North,1,13.0,15.0,82,0.00,,---,0.00,VWS V14.01,2013-01-29 22:14:00,
2013-01-29 16:15:00,36.8,31.8,29.49,North,1,10.0,15.0,82,0.00,,---,0.00,VWS V14.01,2013-01-29 22:15:00,
2013-01-29 16:16:00,36.8,31.8,29.49,North,0,10.0,11.0,82,0.00,,---,0.00,VWS V14.01,2013-01-29 22:16:00,
2013-01-29 16:19:00,36.8,31.8,29.49,North,354,10.0,15.0,82,0.00,,---,0.00,VWS V14.01,2013-01-29 22:19:00,
2013-01-29 16:20:00,36.8,31.8,29.49,North,0,12.0,15.0,82,0.00,,---,0.00,VWS V14.01,2013-01-29 22:20:00,
2013-01-29 16:21:00,36.6,31.6,29.49,North,359,9.0,15.0,82,0.00,,---,0.00,VWS V14.01,2013-01-29 22:21:00,
2013-01-29 16:24:00,36.6,31.6,29.49,North,359,5.0,17.0,82,0.00,,---,0.00,VWS V14.01,2013-01-29 22:24:00,
2013-01-29 16:25:00,36.6,31.9,29.49,North,359,11.0,17.0,83,0.00,,---,0.00,VWS V14.01,2013-01-29 22:25:00,
2013-01-29 16:26:00,36.6,31.9,29.49,North,359,9.0,17.0,83,0.00,,---,0.00,VWS V14.01,2013-01-29 22:26:00,
2013-01-29 16:29:00,36.5,31.8,29.49,North,0,12.0,18.0,83,0.00,,---,0.00,VWS V14.01,2013-01-29 22:29:00,
2013-01-29 16:30:00,36.5,31.8,29.50,North,0,10.0,18.0,83,0.00,,---,0.00,VWS V14.01,2013-01-29 22:30:00,
2013-01-29 16:31:00,36.5,31.8,29.50,North,1,15.0,18.0,83,0.00,,---,0.00,VWS V14.01,2013-01-29 22:31:00,
2013-01-29 16:34:00,36.5,31.8,29.50,North,359,19.0,19.0,83,0.00,,---,0.00,VWS V14.01,2013-01-29 22:34:00,
2013-01-29 16:36:00,36.5,31.8,29.50,North,359,12.0,19.0,83,0.00,,---,0.00,VWS V14.01,2013-01-29 22:36:00,
2013-01-29 16:37:00,36.5,31.8,29.50,North,359,14.0,19.0,83,0.00,,---,0.00,VWS V14.01,2013-01-29 22:37:00,
2013-01-29 16:39:00,36.5,31.8,29.50,NW,312,8.0,19.0,83,0.00,,---,0.00,VWS V14.01,2013-01-29 22:39:00,
2013-01-29 16:41:00,36.5,31.8,29.50,NNW,338,4.0,19.0,83,0.00,,---,0.00,VWS V14.01,2013-01-29 22:41:00,
2013-01-29 16:42:00,36.5,31.8,29.50,NW,324,9.0,19.0,83,0.00,,---,0.00,VWS V14.01,2013-01-29 22:42:00,
2013-01-29 16:45:00,36.5,31.8,29.52,NW,307,5.0,19.0,83,0.00,,---,0.00,VWS V14.01,2013-01-29 22:45:00,
2013-01-29 16:46:00,36.5,31.8,29.52,North,0,10.0,10.0,83,0.00,,---,0.00,VWS V14.01,2013-01-29 22:46:00,
2013-01-29 16:47:00,36.5,31.8,29.52,NNW,340,10.0,15.0,83,0.00,,---,0.00,VWS V14.01,2013-01-29 22:47:00,
2013-01-29 16:50:00,36.3,31.9,29.52,North,359,12.0,15.0,84,0.00,,---,0.00,VWS V14.01,2013-01-29 22:50:00,
2013-01-29 16:51:00,36.3,31.9,29.52,NW,326,6.0,15.0,84,0.00,,---,0.00,VWS V14.01,2013-01-29 22:51:00,
2013-01-29 16:52:00,36.3,31.9,29.52,NW,326,6.0,15.0,84,0.00,,---,0.00,VWS V14.01,2013-01-29 22:52:00,
2013-01-29 16:55:00,36.3,31.9,29.52,North,356,4.0,15.0,84,0.00,,---,0.00,VWS V14.01,2013-01-29 22:55:00,
2013-01-29 16:56:00,36.3,31.9,29.52,North,1,5.0,15.0,84,0.00,,---,0.00,VWS V14.01,2013-01-29 22:56:00,
2013-01-29 16:57:00,36.2,31.8,29.52,NNW,344,5.0,15.0,84,0.00,,---,0.00,VWS V14.01,2013-01-29 22:57:00,
2013-01-29 16:58:00,36.2,31.8,29.52,NNW,345,5.0,15.0,84,0.00,,---,0.00,VWS V14.01,2013-01-29 22:58:00,
2013-01-29 17:00:00,36.2,31.8,29.52,North,354,3.0,16.0,84,0.00,,---,0.00,VWS V14.01,2013-01-29 23:00:00,
2013-01-29 17:01:00,36.2,31.8,29.52,North,1,12.0,16.0,84,0.00,,---,0.00,VWS V14.01,2013-01-29 23:01:00,
2013-01-29 17:03:00,36.2,31.8,29.52,North,0,11.0,16.0,84,0.00,,---,0.00,VWS V14.01,2013-01-29 23:03:00,
2013-01-29 17:05:00,36.0,31.6,29.52,NNW,347,5.0,16.0,84,0.00,,---,0.00,VWS V14.01,2013-01-29 23:05:00,
2013-01-29 17:07:00,36.0,31.6,29.52,North,349,13.0,16.0,84,0.00,,---,0.00,VWS V14.01,2013-01-29 23:07:00,
2013-01-29 17:08:00,36.0,31.6,29.52,North,353,13.0,16.0,84,0.00,,---,0.00,VWS V14.01,2013-01-29 23:08:00,
2013-01-29 17:10:00,35.9,31.5,29.52,North,359,14.0,18.0,84,0.00,,---,0.00,VWS V14.01,2013-01-29 23:10:00,
2013-01-29 17:12:00,35.9,31.5,29.52,North,3,13.0,18.0,84,0.00,,---,0.00,VWS V14.01,2013-01-29 23:12:00,
2013-01-29 17:13:00,35.8,31.7,29.52,North,0,11.0,18.0,85,0.00,,---,0.00,VWS V14.01,2013-01-29 23:13:00,
2013-01-29 17:15:00,35.8,31.7,29.52,North,1,9.0,18.0,85,0.00,,---,0.00,VWS V14.01,2013-01-29 23:15:00,
2013-01-29 17:17:00,35.8,31.7,29.52,North,359,13.0,16.0,85,0.00,,---,0.00,VWS V14.01,2013-01-29 23:17:00,
2013-01-29 17:18:00,35.8,31.7,29.52,North,350,14.0,17.0,85,0.00,,---,0.00,VWS V14.01,2013-01-29 23:18:00,
2013-01-29 17:21:00,35.6,31.5,29.52,North,359,16.0,19.0,85,0.00,,---,0.00,VWS V14.01,2013-01-29 23:21:00,
2013-01-29 17:22:00,35.6,31.5,29.52,North,359,12.0,19.0,85,0.00,,---,0.00,VWS V14.01,2013-01-29 23:22:00,
2013-01-29 17:23:00,35.6,31.5,29.52,North,2,12.0,19.0,85,0.00,,---,0.00,VWS V14.01,2013-01-29 23:23:00,
2013-01-29 17:24:00,35.6,31.5,29.52,North,359,13.0,19.0,85,0.00,,---,0.00,VWS V14.01,2013-01-29 23:24:00,
2013-01-29 17:26:00,35.6,31.5,29.52,North,359,14.0,19.0,85,0.00,,---,0.00,VWS V14.01,2013-01-29 23:26:00,
2013-01-29 17:27:00,35.6,31.8,29.52,North,0,14.0,19.0,86,0.00,,---,0.00,VWS V14.01,2013-01-29 23:27:00,
2013-01-29 17:29:00,35.6,31.8,29.52,North,359,12.0,19.0,86,0.00,,---,0.00,VWS V14.01,2013-01-29 23:29:00,
2013-01-29 17:30:00,35.8,31.7,29.52,North,1,9.0,18.0,85,0.00,,---,0.00,VWS V14.01,2013-01-29 23:30:00,
2013-01-29 17:31:00,35.6,31.8,29.51,North,1,9.0,19.0,86,0.00,,---,0.00,VWS V14.01,2013-01-29 23:31:00,
2013-01-29 17:32:00,35.6,31.8,29.51,North,1,12.0,19.0,86,0.00,,---,0.00,VWS V14.01,2013-01-29 23:32:00,
2013-01-29 17:34:00,35.5,31.7,29.51,North,0,14.0,19.0,86,0.00,,---,0.00,VWS V14.01,2013-01-29 23:34:00,
2013-01-29 17:35:00,35.5,31.7,29.51,North,4,15.0,19.0,86,0.00,,---,0.00,VWS V14.01,2013-01-29 23:35:00,
2013-01-29 17:36:00,35.5,30.9,29.51,North,1,17.0,19.0,83,0.00,,---,0.00,VWS V14.01,2013-01-29 23:36:00,
2013-01-29 17:37:00,35.5,31.7,29.51,North,1,14.0,19.0,86,0.00,,---,0.00,VWS V14.01,2013-01-29 23:37:00,
2013-01-29 17:39:00,35.5,31.7,29.51,North,359,15.0,19.0,86,0.00,,---,0.00,VWS V14.01,2013-01-29 23:39:00,
2013-01-29 17:40:00,35.5,31.7,29.51,North,359,12.0,19.0,86,0.00,,---,0.00,VWS V14.01,2013-01-29 23:40:00,
2013-01-29 17:42:00,35.5,31.7,29.51,North,0,11.0,19.0,86,0.00,,---,0.00,VWS V14.01,2013-01-29 23:42:00,
2013-01-29 17:45:00,35.3,31.5,29.53,North,1,9.0,19.0,86,0.00,,---,0.00,VWS V14.01,2013-01-29 23:45:00,
2013-01-29 17:47:00,35.3,31.5,29.53,North,359,9.0,13.0,86,0.00,,---,0.00,VWS V14.01,2013-01-29 23:47:00,
2013-01-29 17:50:00,35.3,31.5,29.53,North,0,8.0,13.0,86,0.00,,---,0.00,VWS V14.01,2013-01-29 23:50:00,
2013-01-29 17:52:00,35.3,31.5,29.53,North,1,14.0,14.0,86,0.00,,---,0.00,VWS V14.01,2013-01-29 23:52:00,
2013-01-29 17:53:00,35.3,31.5,29.53,North,359,10.0,16.0,86,0.00,,---,0.00,VWS V14.01,2013-01-29 23:53:00,
2013-01-29 17:55:00,35.2,31.4,29.53,North,359,7.0,16.0,86,0.00,,---,0.00,VWS V14.01,2013-01-29 23:55:00,
2013-01-29 17:56:00,35.2,31.4,29.53,North,359,11.0,16.0,86,0.00,,---,0.00,VWS V14.01,2013-01-29 23:56:00,
2013-01-29 17:58:00,35.2,31.7,29.53,North,359,6.0,16.0,87,0.00,,---,0.00,VWS V14.01,2013-01-29 23:58:00,
2013-01-29 18:00:00,35.3,31.5,29.53,North,0,13.0,19.0,86,0.00,,---,0.00,VWS V14.01,2013-01-30 00:00:00,
2013-01-29 18:01:00,35.0,31.5,29.55,North,359,9.0,11.0,87,0.00,,---,0.00,VWS V14.01,2013-01-30 00:01:00,
2013-01-29 18:03:00,35.0,31.5,29.55,North,352,6.0,11.0,87,0.00,,---,0.00,VWS V14.01,2013-01-30 00:03:00,
2013-01-29 18:06:00,35.0,31.5,29.55,North,359,4.0,13.0,87,0.00,,---,0.00,VWS V14.01,2013-01-30 00:06:00,
2013-01-29 18:08:00,35.0,31.5,29.55,North,359,9.0,13.0,87,0.00,,---,0.00,VWS V14.01,2013-01-30 00:08:00,
2013-01-29 18:09:00,35.0,31.5,29.55,North,351,9.0,13.0,87,0.00,,---,0.00,VWS V14.01,2013-01-30 00:09:00,
2013-01-29 18:11:00,35.0,31.8,29.55,NNW,328,2.0,13.0,88,0.00,,---,0.00,VWS V14.01,2013-01-30 00:11:00,
2013-01-29 18:13:00,35.0,31.8,29.55,North,357,2.0,13.0,88,0.00,,---,0.00,VWS V14.01,2013-01-30 00:13:00,
2013-01-29 18:14:00,35.0,31.8,29.55,NNW,335,4.0,13.0,88,0.00,,---,0.00,VWS V14.01,2013-01-30 00:14:00,
2013-01-29 18:17:00,34.9,31.7,29.54,NNW,333,5.0,10.0,88,0.00,,---,0.00,VWS V14.01,2013-01-30 00:17:00,
2013-01-29 18:19:00,34.9,31.7,29.54,NW,316,4.0,11.0,88,0.00,,---,0.00,VWS V14.01,2013-01-30 00:19:00,
2013-01-29 18:22:00,34.9,31.7,29.54,NW,323,10.0,15.0,88,0.00,,---,0.00,VWS V14.01,2013-01-30 00:22:00,
2013-01-29 18:24:00,34.7,31.5,29.54,NW,321,7.0,15.0,88,0.00,,---,0.00,VWS V14.01,2013-01-30 00:24:00,
2013-01-29 18:28:00,34.7,31.5,29.54,NNW,337,5.0,15.0,88,0.00,,---,0.00,VWS V14.01,2013-01-30 00:28:00,
2013-01-29 18:29:00,34.7,31.5,29.54,NNW,340,5.0,15.0,88,0.00,,---,0.00,VWS V14.01,2013-01-30 00:29:00,
2013-01-29 18:30:00,34.7,31.5,29.54,NNW,336,4.0,15.0,88,0.00,,---,0.00,VWS V14.01,2013-01-30 00:30:00,
2013-01-29 18:33:00,34.7,31.5,29.54,NNW,343,6.0,15.0,88,0.00,,---,0.00,VWS V14.01,2013-01-30 00:33:00,
2013-01-29 18:34:00,34.7,31.5,29.54,NNW,348,3.0,15.0,88,0.00,,---,0.00,VWS V14.01,2013-01-30 00:34:00,
2013-01-29 18:35:00,34.7,31.5,29.54,North,355,12.0,15.0,88,0.00,,---,0.00,VWS V14.01,2013-01-30 00:35:00,
2013-01-29 18:38:00,34.7,31.5,29.54,North,349,5.0,15.0,88,0.00,,---,0.00,VWS V14.01,2013-01-30 00:38:00,
2013-01-29 18:40:00,34.7,31.5,29.54,NNW,331,5.0,15.0,88,0.00,,---,0.00,VWS V14.01,2013-01-30 00:40:00,
2013-01-29 18:43:00,34.7,31.5,29.54,NW,322,4.0,15.0,88,0.00,,---,0.00,VWS V14.01,2013-01-30 00:43:00,
2013-01-29 18:45:00,34.7,31.5,29.54,NNW,337,4.0,15.0,88,0.00,,---,0.00,VWS V14.01,2013-01-30 00:45:00,
2013-01-29 18:46:00,34.7,31.5,29.54,NNW,345,3.0,7.0,88,0.00,,---,0.00,VWS V14.01,2013-01-30 00:46:00,
2013-01-29 18:49:00,34.7,31.5,29.54,North,352,2.0,12.0,88,0.00,,---,0.00,VWS V14.01,2013-01-30 00:49:00,
2013-01-29 18:50:00,34.7,31.5,29.54,NW,309,12.0,12.0,88,0.00,,---,0.00,VWS V14.01,2013-01-30 00:50:00,
2013-01-29 18:51:00,34.6,31.4,29.54,NW,319,6.0,12.0,88,0.00,,---,0.00,VWS V14.01,2013-01-30 00:51:00,
2013-01-29 18:52:00,34.6,31.4,29.54,NW,320,5.0,12.0,88,0.00,,---,0.00,VWS V14.01,2013-01-30 00:52:00,
2013-01-29 18:54:00,34.6,31.7,29.54,NNW,330,6.0,12.0,89,0.00,,---,0.00,VWS V14.01,2013-01-30 00:54:00,
2013-01-29 18:55:00,34.6,31.7,29.54,NNW,328,4.0,12.0,89,0.00,,---,0.00,VWS V14.01,2013-01-30 00:55:00,
2013-01-29 18:56:00,34.6,31.7,29.54,NW,315,7.0,12.0,89,0.00,,---,0.00,VWS V14.01,2013-01-30 00:56:00,
2013-01-29 18:57:00,34.6,31.7,29.54,NNW,330,7.0,12.0,89,0.00,,---,0.00,VWS V14.01,2013-01-30 00:57:00,
2013-01-29 18:59:00,34.4,31.5,29.54,North,354,9.0,12.0,89,0.00,,---,0.00,VWS V14.01,2013-01-30 00:59:00,
2013-01-29 19:00:00,34.4,31.5,29.54,North,353,4.0,12.0,89,0.00,,---,0.00,VWS V14.01,2013-01-30 01:00:00,
2013-01-29 19:01:00,34.4,31.8,29.54,North,357,10.0,12.0,90,0.00,,---,0.00,VWS V14.01,2013-01-30 01:01:00,
2013-01-29 19:02:00,34.4,32.0,29.54,North,356,9.0,13.0,91,0.00,,---,0.00,VWS V14.01,2013-01-30 01:02:00,
2013-01-29 19:05:00,34.4,31.8,29.54,North,0,12.0,14.0,90,0.00,,---,0.00,VWS V14.01,2013-01-30 01:05:00,
2013-01-29 19:06:00,34.4,31.8,29.54,North,356,11.0,15.0,90,0.00,,---,0.00,VWS V14.01,2013-01-30 01:06:00,
2013-01-29 19:07:00,34.4,31.8,29.54,North,350,4.0,15.0,90,0.00,,---,0.00,VWS V14.01,2013-01-30 01:07:00,
2013-01-29 19:10:00,34.3,31.7,29.54,North,354,10.0,15.0,90,0.00,,---,0.00,VWS V14.01,2013-01-30 01:10:00,
2013-01-29 19:12:00,34.3,32.0,29.54,North,356,5.0,15.0,91,0.00,,---,0.00,VWS V14.01,2013-01-30 01:12:00,
2013-01-29 19:15:00,34.3,32.0,29.53,North,356,4.0,15.0,91,0.00,,---,0.00,VWS V14.01,2013-01-30 01:15:00,
2013-01-29 19:17:00,34.3,32.0,29.53,North,359,11.0,14.0,91,0.00,,---,0.00,VWS V14.01,2013-01-30 01:17:00,
2013-01-29 19:20:00,34.1,32.0,29.53,North,0,10.0,14.0,92,0.00,,---,0.00,VWS V14.01,2013-01-30 01:20:00,
2013-01-29 19:21:00,34.1,32.0,29.53,North,357,9.0,14.0,92,0.00,,---,0.00,VWS V14.01,2013-01-30 01:21:00,
2013-01-29 19:22:00,34.1,32.0,29.53,North,4,9.0,14.0,92,0.00,,---,0.00,VWS V14.01,2013-01-30 01:22:00,
2013-01-29 19:26:00,34.1,32.0,29.53,North,7,6.0,14.0,92,0.00,,---,0.00,VWS V14.01,2013-01-30 01:26:00,
2013-01-29 19:27:00,34.1,32.0,29.53,North,0,5.0,14.0,92,0.00,,---,0.00,VWS V14.01,2013-01-30 01:27:00,
2013-01-29 19:30:00,34.3,32.0,29.53,North,354,13.0,15.0,91,0.00,,---,0.00,VWS V14.01,2013-01-30 01:30:00,
2013-01-29 19:31:00,34.1,32.3,29.53,North,0,9.0,14.0,93,0.00,,---,0.00,VWS V14.01,2013-01-30 01:31:00,
2013-01-29 19:32:00,34.1,32.3,29.53,North,359,9.0,14.0,93,0.00,,---,0.00,VWS V14.01,2013-01-30 01:32:00,
2013-01-29 19:36:00,34.1,32.6,29.53,North,359,6.0,14.0,94,0.00,,---,0.00,VWS V14.01,2013-01-30 01:36:00,
2013-01-29 19:38:00,34.1,32.6,29.53,North,359,7.0,14.0,94,0.00,,---,0.00,VWS V14.01,2013-01-30 01:38:00,
2013-01-29 19:41:00,34.1,32.8,29.53,North,1,8.0,14.0,95,0.00,,---,0.00,VWS V14.01,2013-01-30 01:41:00,
2013-01-29 19:43:00,34.1,32.8,29.53,North,359,4.0,14.0,95,0.00,,---,0.00,VWS V14.01,2013-01-30 01:43:00,
2013-01-29 19:46:00,34.1,33.1,29.53,North,356,5.0,7.0,96,0.00,,---,0.00,VWS V14.01,2013-01-30 01:46:00,
2013-01-29 19:48:00,34.0,33.0,29.53,North,359,9.0,13.0,96,0.00,,---,0.00,VWS V14.01,2013-01-30 01:48:00,
2013-01-29 19:51:00,34.0,33.0,29.53,North,359,9.0,13.0,96,0.00,,---,0.00,VWS V14.01,2013-01-30 01:51:00,
2013-01-29 19:53:00,34.0,33.0,29.53,North,1,6.0,13.0,96,0.00,,---,0.00,VWS V14.01,2013-01-30 01:53:00,
2013-01-29 19:56:00,33.8,32.8,29.53,North,354,8.0,13.0,96,0.00,,---,0.00,VWS V14.01,2013-01-30 01:56:00,
2013-01-29 19:58:00,34.0,33.2,29.53,North,1,5.0,13.0,97,0.00,,---,0.00,VWS V14.01,2013-01-30 01:58:00,
2013-01-29 19:59:00,34.0,33.2,29.53,North,1,7.0,13.0,97,0.00,,---,0.00,VWS V14.01,2013-01-30 01:59:00,
2013-01-29 20:00:00,34.1,33.1,29.53,North,357,6.0,14.0,96,0.00,,---,0.00,VWS V14.01,2013-01-30 02:00:00,
2013-01-29 20:02:00,34.0,33.2,29.52,North,359,7.0,13.0,97,0.00,,---,0.00,VWS V14.01,2013-01-30 02:02:00,
2013-01-29 20:04:00,34.0,33.2,29.52,North,359,4.0,13.0,97,0.00,,---,0.00,VWS V14.01,2013-01-30 02:04:00,
2013-01-29 20:07:00,34.0,33.2,29.52,North,1,6.0,13.0,97,0.00,,---,0.00,VWS V14.01,2013-01-30 02:07:00,
2013-01-29 20:09:00,34.0,33.2,29.52,North,359,9.0,13.0,97,0.00,,---,0.00,VWS V14.01,2013-01-30 02:09:00,
2013-01-29 20:12:00,34.0,33.2,29.52,North,359,7.0,13.0,97,0.00,,---,0.00,VWS V14.01,2013-01-30 02:12:00,
2013-01-29 20:14:00,34.0,33.2,29.52,North,357,9.0,13.0,97,0.00,,---,0.00,VWS V14.01,2013-01-30 02:14:00,
2013-01-29 20:17:00,34.0,33.5,29.52,North,1,12.0,12.0,98,0.00,,---,0.00,VWS V14.01,2013-01-30 02:17:00,
2013-01-29 20:18:00,34.0,33.5,29.52,North,1,12.0,12.0,98,0.00,,---,0.00,VWS V14.01,2013-01-30 02:18:00,
2013-01-29 20:19:00,33.8,33.3,29.52,North,358,11.0,13.0,98,0.00,,---,0.00,VWS V14.01,2013-01-30 02:19:00,
2013-01-29 20:20:00,33.8,33.3,29.52,North,354,12.0,14.0,98,0.00,,---,0.00,VWS V14.01,2013-01-30 02:20:00,
2013-01-29 20:23:00,33.8,33.3,29.52,NNW,331,10.0,14.0,98,0.00,,---,0.00,VWS V14.01,2013-01-30 02:23:00,
2013-01-29 20:24:00,33.8,33.3,29.52,North,359,7.0,16.0,98,0.00,,---,0.00,VWS V14.01,2013-01-30 02:24:00,
2013-01-29 20:25:00,33.8,33.3,29.52,North,0,14.0,16.0,98,0.00,,---,0.00,VWS V14.01,2013-01-30 02:25:00,
2013-01-29 20:28:00,33.8,33.3,29.52,North,359,9.0,16.0,98,0.00,,---,0.00,VWS V14.01,2013-01-30 02:28:00,
2013-01-29 20:29:00,33.8,33.3,29.52,North,359,9.0,16.0,98,0.00,,---,0.00,VWS V14.01,2013-01-30 02:29:00,
2013-01-29 20:30:00,33.8,33.3,29.52,North,4,10.0,16.0,98,0.00,,---,0.00,VWS V14.01,2013-01-30 02:30:00,
2013-01-29 20:33:00,33.8,33.3,29.52,North,354,7.0,16.0,98,0.00,,---,0.00,VWS V14.01,2013-01-30 02:33:00,
2013-01-29 20:34:00,33.8,33.3,29.52,North,356,4.0,16.0,98,0.00,,---,0.00,VWS V14.01,2013-01-30 02:34:00,
2013-01-29 20:35:00,33.8,33.3,29.52,North,359,7.0,16.0,98,0.00,,---,0.00,VWS V14.01,2013-01-30 02:35:00,
2013-01-29 20:38:00,34.0,33.5,29.52,North,356,5.0,16.0,98,0.00,,---,0.00,VWS V14.01,2013-01-30 02:38:00,
2013-01-29 20:39:00,34.0,33.5,29.52,North,358,2.0,16.0,98,0.00,,---,0.00,VWS V14.01,2013-01-30 02:39:00,
2013-01-29 20:40:00,34.0,33.5,29.52,North,359,9.0,16.0,98,0.00,,---,0.00,VWS V14.01,2013-01-30 02:40:00,
2013-01-29 20:44:00,34.0,33.5,29.52,North,356,5.0,16.0,98,0.00,,---,0.00,VWS V14.01,2013-01-30 02:44:00,
2013-01-29 20:45:00,34.0,33.5,29.52,North,358,12.0,16.0,98,0.00,,---,0.00,VWS V14.01,2013-01-30 02:45:00,
2013-01-29 20:46:00,34.0,33.5,29.51,North,359,10.0,12.0,98,0.00,,---,0.00,VWS V14.01,2013-01-30 02:46:00,
2013-01-29 20:49:00,33.8,33.3,29.51,North,0,11.0,14.0,98,0.00,,---,0.00,VWS V14.01,2013-01-30 02:49:00,
2013-01-29 20:50:00,33.8,33.3,29.51,North,359,12.0,14.0,98,0.00,,---,0.00,VWS V14.01,2013-01-30 02:50:00,
2013-01-29 20:51:00,33.8,33.3,29.51,NNW,343,12.0,15.0,98,0.00,,---,0.00,VWS V14.01,2013-01-30 02:51:00,
2013-01-29 20:54:00,33.7,33.2,29.51,North,0,14.0,15.0,98,0.00,,---,0.00,VWS V14.01,2013-01-30 02:54:00,
2013-01-29 20:55:00,33.7,33.2,29.51,North,359,13.0,15.0,98,0.00,,---,0.00,VWS V14.01,2013-01-30 02:55:00,
2013-01-29 20:56:00,33.7,33.2,29.51,North,1,12.0,15.0,98,0.00,,---,0.00,VWS V14.01,2013-01-30 02:56:00,
2013-01-29 20:57:00,33.7,33.2,29.51,North,0,10.0,15.0,98,0.00,,---,0.00,VWS V14.01,2013-01-30 02:57:00,
2013-01-29 20:59:00,33.7,33.2,29.51,North,1,10.0,19.0,98,0.00,,---,0.00,VWS V14.01,2013-01-30 02:59:00,
2013-01-29 21:00:00,33.8,33.3,29.50,North,0,6.0,9.0,98,0.00,,---,0.00,VWS V14.01,2013-01-30 03:00:00,
2013-01-29 21:01:00,33.8,33.3,29.50,North,0,11.0,15.0,98,0.00,,---,0.00,VWS V14.01,2013-01-30 03:01:00,
2013-01-29 21:02:00,33.8,33.3,29.50,North,352,9.0,15.0,98,0.00,,---,0.00,VWS V14.01,2013-01-30 03:02:00,
2013-01-29 21:04:00,33.8,33.0,29.50,North,350,6.0,15.0,97,0.00,,---,0.00,VWS V14.01,2013-01-30 03:04:00,
2013-01-29 21:05:00,33.8,33.0,29.50,North,9,10.0,15.0,97,0.00,,---,0.00,VWS V14.01,2013-01-30 03:05:00,
2013-01-29 21:06:00,34.0,33.2,29.50,North,357,10.0,15.0,97,0.00,,---,0.00,VWS V14.01,2013-01-30 03:06:00,
2013-01-29 21:07:00,34.0,33.2,29.50,North,359,13.0,15.0,97,0.00,,---,0.00,VWS V14.01,2013-01-30 03:07:00,
2013-01-29 21:10:00,34.0,33.2,29.50,North,0,11.0,15.0,97,0.00,,---,0.00,VWS V14.01,2013-01-30 03:10:00,
2013-01-29 21:11:00,34.0,33.2,29.50,North,0,11.0,15.0,97,0.00,,---,0.00,VWS V14.01,2013-01-30 03:11:00,
2013-01-29 21:12:00,34.0,33.0,29.50,North,6,6.0,15.0,96,0.00,,---,0.00,VWS V14.01,2013-01-30 03:12:00,
2013-01-29 21:15:00,34.0,33.0,29.51,North,4,12.0,15.0,96,0.00,,---,0.00,VWS V14.01,2013-01-30 03:15:00,
2013-01-29 21:16:00,34.0,33.0,29.51,NNE,13,10.0,10.0,96,0.00,,---,0.00,VWS V14.01,2013-01-30 03:16:00,
2013-01-29 21:18:00,34.0,32.7,29.51,North,359,11.0,15.0,95,0.00,,---,0.00,VWS V14.01,2013-01-30 03:18:00,
2013-01-29 21:20:00,34.0,32.5,29.51,North,358,10.0,15.0,94,0.00,,---,0.00,VWS V14.01,2013-01-30 03:20:00,
2013-01-29 21:21:00,34.0,32.5,29.51,North,1,9.0,15.0,94,0.00,,---,0.00,VWS V14.01,2013-01-30 03:21:00,
2013-01-29 21:22:00,34.0,32.5,29.51,North,1,10.0,15.0,94,0.00,,---,0.00,VWS V14.01,2013-01-30 03:22:00,
2013-01-29 21:23:00,34.0,32.5,29.51,North,1,11.0,15.0,94,0.00,,---,0.00,VWS V14.01,2013-01-30 03:23:00,
2013-01-29 21:26:00,34.0,32.2,29.51,North,1,11.0,15.0,93,0.00,,---,0.00,VWS V14.01,2013-01-30 03:26:00,
2013-01-29 21:27:00,34.1,32.3,29.51,North,7,12.0,15.0,93,0.00,,---,0.00,VWS V14.01,2013-01-30 03:27:00,
2013-01-29 21:28:00,34.1,32.3,29.51,North,9,9.0,15.0,93,0.00,,---,0.00,VWS V14.01,2013-01-30 03:28:00,
2013-01-29 21:30:00,34.0,33.0,29.51,North,1,10.0,15.0,96,0.00,,---,0.00,VWS V14.01,2013-01-30 03:30:00,
2013-01-29 21:31:00,34.1,32.0,29.52,North,0,14.0,17.0,92,0.00,,---,0.00,VWS V14.01,2013-01-30 03:31:00,
2013-01-29 21:32:00,34.1,32.0,29.52,North,0,13.0,17.0,92,0.00,,---,0.00,VWS V14.01,2013-01-30 03:32:00,
2013-01-29 21:33:00,34.1,32.0,29.52,North,0,9.0,17.0,92,0.00,,---,0.00,VWS V14.01,2013-01-30 03:33:00,
2013-01-29 21:37:00,34.1,31.8,29.52,North,1,9.0,17.0,91,0.00,,---,0.00,VWS V14.01,2013-01-30 03:37:00,
2013-01-29 21:38:00,34.1,31.8,29.52,NNW,346,5.0,17.0,91,0.00,,---,0.00,VWS V14.01,2013-01-30 03:38:00,
2013-01-29 21:39:00,34.1,31.8,29.52,NNW,341,3.0,17.0,91,0.00,,---,0.00,VWS V14.01,2013-01-30 03:39:00,
2013-01-29 21:42:00,34.1,31.8,29.52,North,6,17.0,19.0,91,0.00,,---,0.00,VWS V14.01,2013-01-30 03:42:00,
2013-01-29 21:43:00,34.1,31.8,29.52,North,359,15.0,19.0,91,0.00,,---,0.00,VWS V14.01,2013-01-30 03:43:00,
2013-01-29 21:44:00,34.1,31.8,29.52,North,1,13.0,19.0,91,0.00,,---,0.00,VWS V14.01,2013-01-30 03:44:00,
2013-01-29 21:48:00,34.1,31.5,29.52,North,359,10.0,11.0,90,0.00,,---,0.00,VWS V14.01,2013-01-30 03:48:00,
2013-01-29 21:49:00,34.1,31.5,29.52,North,1,15.0,17.0,90,0.00,,---,0.00,VWS V14.01,2013-01-30 03:49:00,
2013-01-29 21:53:00,34.1,31.5,29.52,North,351,6.0,17.0,90,0.00,,---,0.00,VWS V14.01,2013-01-30 03:53:00,
2013-01-29 21:54:00,34.1,31.5,29.52,North,359,6.0,17.0,90,0.00,,---,0.00,VWS V14.01,2013-01-30 03:54:00,
2013-01-29 21:58:00,34.1,31.5,29.52,North,4,9.0,17.0,90,0.00,,---,0.00,VWS V14.01,2013-01-30 03:58:00,
2013-01-29 21:59:00,34.1,31.5,29.52,North,355,11.0,17.0,90,0.00,,---,0.00,VWS V14.01,2013-01-30 03:59:00,
2013-01-29 22:00:00,34.1,31.5,29.52,North,349,5.0,17.0,90,0.00,,---,0.00,VWS V14.01,2013-01-30 04:00:00,
2013-01-29 22:03:00,34.1,31.5,29.52,NNW,328,6.0,17.0,90,0.00,,---,0.00,VWS V14.01,2013-01-30 04:03:00,
2013-01-29 22:04:00,34.1,31.5,29.52,North,359,4.0,17.0,90,0.00,,---,0.00,VWS V14.01,2013-01-30 04:04:00,
2013-01-29 22:05:00,34.0,31.4,29.52,NNW,347,4.0,17.0,90,0.00,,---,0.00,VWS V14.01,2013-01-30 04:05:00,
2013-01-29 22:09:00,34.0,31.4,29.52,NNW,333,4.0,17.0,90,0.00,,---,0.00,VWS V14.01,2013-01-30 04:09:00,
2013-01-29 22:10:00,34.0,31.4,29.52,North,351,6.0,17.0,90,0.00,,---,0.00,VWS V14.01,2013-01-30 04:10:00,
2013-01-29 22:14:00,34.0,31.4,29.52,NW,317,6.0,17.0,90,0.00,,---,0.00,VWS V14.01,2013-01-30 04:14:00,
2013-01-29 22:15:00,34.0,31.4,29.52,NNW,338,9.0,17.0,90,0.00,,---,0.00,VWS V14.01,2013-01-30 04:15:00,
2013-01-29 22:17:00,34.0,31.4,29.53,NW,311,10.0,12.0,90,0.00,,---,0.00,VWS V14.01,2013-01-30 04:17:00,
2013-01-29 22:20:00,34.0,31.4,29.53,NNW,328,6.0,12.0,90,0.00,,---,0.00,VWS V14.01,2013-01-30 04:20:00,
2013-01-29 22:21:00,34.0,31.4,29.53,North,359,4.0,12.0,90,0.00,,---,0.00,VWS V14.01,2013-01-30 04:21:00,
2013-01-29 22:22:00,33.8,31.2,29.53,North,359,11.0,12.0,90,0.00,,---,0.00,VWS V14.01,2013-01-30 04:22:00,
2013-01-29 22:25:00,33.8,31.2,29.53,NNW,335,7.0,12.0,90,0.00,,---,0.00,VWS V14.01,2013-01-30 04:25:00,
2013-01-29 22:26:00,33.8,32.3,29.53,NNW,342,11.0,12.0,94,0.00,,---,0.00,VWS V14.01,2013-01-30 04:26:00,
2013-01-29 22:27:00,33.8,31.2,29.53,North,353,3.0,12.0,90,0.00,,---,0.00,VWS V14.01,2013-01-30 04:27:00,
2013-01-29 22:30:00,33.8,31.2,29.50,NNW,348,3.0,14.0,90,0.00,,---,0.00,VWS V14.01,2013-01-30 04:30:00,
2013-01-29 22:31:00,33.8,31.2,29.50,North,359,9.0,14.0,90,0.00,,---,0.00,VWS V14.01,2013-01-30 04:31:00,
2013-01-29 22:32:00,33.8,31.2,29.50,North,359,10.0,14.0,90,0.00,,---,0.00,VWS V14.01,2013-01-30 04:32:00,
2013-01-29 22:35:00,33.8,31.2,29.50,North,359,6.0,14.0,90,0.00,,---,0.00,VWS V14.01,2013-01-30 04:35:00,
2013-01-29 22:36:00,33.8,31.2,29.50,NNW,332,4.0,14.0,90,0.00,,---,0.00,VWS V14.01,2013-01-30 04:36:00,
2013-01-29 22:37:00,33.8,31.2,29.50,North,354,4.0,14.0,90,0.00,,---,0.00,VWS V14.01,2013-01-30 04:37:00,
2013-01-29 22:40:00,33.7,31.1,29.50,North,354,6.0,14.0,90,0.00,,---,0.00,VWS V14.01,2013-01-30 04:40:00,
2013-01-29 22:41:00,33.7,31.1,29.50,North,359,6.0,14.0,90,0.00,,---,0.00,VWS V14.01,2013-01-30 04:41:00,
2013-01-29 22:43:00,33.7,31.1,29.50,North,1,11.0,16.0,90,0.00,,---,0.00,VWS V14.01,2013-01-30 04:43:00,
2013-01-29 22:45:00,33.7,31.4,29.48,North,359,9.0,16.0,91,0.00,,---,0.00,VWS V14.01,2013-01-30 04:45:00,
2013-01-29 22:46:00,33.7,31.4,29.48,North,352,5.0,10.0,91,0.00,,---,0.00,VWS V14.01,2013-01-30 04:46:00,
2013-01-29 22:47:00,33.7,31.4,29.48,NNW,333,10.0,10.0,91,0.00,,---,0.00,VWS V14.01,2013-01-30 04:47:00,
2013-01-29 22:49:00,33.5,31.2,29.48,NNW,342,4.0,10.0,91,0.00,,---,0.00,VWS V14.01,2013-01-30 04:49:00,
2013-01-29 22:50:00,33.5,31.2,29.48,NNW,330,6.0,12.0,91,0.00,,---,0.00,VWS V14.01,2013-01-30 04:50:00,
2013-01-29 22:51:00,33.5,31.2,29.48,NW,319,7.0,12.0,91,0.00,,---,0.00,VWS V14.01,2013-01-30 04:51:00,
2013-01-29 22:52:00,33.5,31.2,29.48,NNW,347,5.0,12.0,91,0.00,,---,0.00,VWS V14.01,2013-01-30 04:52:00,
2013-01-29 22:54:00,33.5,31.4,29.48,North,356,6.0,12.0,92,0.00,,---,0.00,VWS V14.01,2013-01-30 04:54:00,
2013-01-29 22:56:00,33.4,31.3,29.48,North,357,2.0,13.0,92,0.00,,---,0.00,VWS V14.01,2013-01-30 04:56:00,
2013-01-29 22:57:00,33.4,31.3,29.48,North,354,6.0,13.0,92,0.00,,---,0.00,VWS V14.01,2013-01-30 04:57:00,
2013-01-29 22:59:00,33.4,31.6,29.48,North,355,4.0,13.0,93,0.00,,---,0.00,VWS V14.01,2013-01-30 04:59:00,
2013-01-29 23:00:00,33.4,31.6,29.53,NW,319,6.0,13.0,93,0.00,,---,0.00,VWS V14.01,2013-01-30 05:00:00,
2013-01-29 23:02:00,33.4,31.6,29.53,North,352,4.0,13.0,93,0.00,,---,0.00,VWS V14.01,2013-01-30 05:02:00,
2013-01-29 23:03:00,33.4,31.6,29.53,North,351,4.0,13.0,93,0.00,,---,0.00,VWS V14.01,2013-01-30 05:03:00,
2013-01-29 23:06:00,33.4,31.9,29.53,NNW,340,4.0,13.0,94,0.00,,---,0.00,VWS V14.01,2013-01-30 05:06:00,
2013-01-29 23:07:00,33.2,31.7,29.53,NW,308,9.0,13.0,94,0.01,,---,0.01,VWS V14.01,2013-01-30 05:07:00,
2013-01-29 23:09:00,33.2,31.9,29.53,NNW,341,7.0,14.0,95,0.01,,---,0.01,VWS V14.01,2013-01-30 05:09:00,
2013-01-29 23:11:00,33.2,31.9,29.53,NW,326,5.0,14.0,95,0.01,,---,0.01,VWS V14.01,2013-01-30 05:11:00,
2013-01-29 23:13:00,33.2,32.2,29.53,NNW,336,3.0,14.0,96,0.01,,---,0.01,VWS V14.01,2013-01-30 05:13:00,
2013-01-29 23:15:00,33.2,32.2,29.52,North,355,4.0,14.0,96,0.01,,---,0.01,VWS V14.01,2013-01-30 05:15:00,
2013-01-29 23:16:00,33.2,32.2,29.52,NNW,328,4.0,5.0,96,0.01,,---,0.01,VWS V14.01,2013-01-30 05:16:00,
2013-01-29 23:18:00,33.1,32.1,29.52,NW,320,5.0,7.0,96,0.01,,---,0.01,VWS V14.01,2013-01-30 05:18:00,
2013-01-29 23:20:00,33.1,32.3,29.52,NW,317,6.0,8.0,97,0.01,,---,0.01,VWS V14.01,2013-01-30 05:20:00,
2013-01-29 23:21:00,33.1,32.3,29.52,NW,322,6.0,8.0,97,0.01,,---,0.01,VWS V14.01,2013-01-30 05:21:00,
2013-01-29 23:23:00,33.1,32.3,29.52,NW,316,3.0,8.0,97,0.01,,---,0.01,VWS V14.01,2013-01-30 05:23:00,
2013-01-29 23:26:00,33.1,32.3,29.52,North,359,8.0,8.0,97,0.01,,---,0.01,VWS V14.01,2013-01-30 05:26:00,
2013-01-29 23:27:00,33.1,32.3,29.52,North,359,3.0,8.0,97,0.01,,---,0.01,VWS V14.01,2013-01-30 05:27:00,
2013-01-29 23:28:00,33.1,32.3,29.52,NNW,333,6.0,10.0,97,0.01,,---,0.01,VWS V14.01,2013-01-30 05:28:00,
2013-01-29 23:29:00,33.1,32.3,29.52,NNW,333,3.0,10.0,97,0.01,,---,0.01,VWS V14.01,2013-01-30 05:29:00,
2013-01-29 23:30:00,33.2,32.2,29.52,NNW,330,3.0,14.0,96,0.01,,---,0.01,VWS V14.01,2013-01-30 05:30:00,
2013-01-29 23:31:00,32.9,32.1,29.52,North,355,4.0,10.0,97,0.01,,---,0.01,VWS V14.01,2013-01-30 05:31:00,
2013-01-29 23:32:00,32.9,32.4,29.52,North,354,10.0,11.0,98,0.01,,---,0.01,VWS V14.01,2013-01-30 05:32:00,
2013-01-29 23:34:00,32.8,32.0,29.52,North,359,11.0,16.0,97,0.01,,---,0.01,VWS V14.01,2013-01-30 05:34:00,